createdAt,value
2017-08-27T00:00:16.473Z,0
2017-08-27T00:01:16.088Z,0
2017-08-27T00:02:16.000Z,0
2017-08-27T00:03:16.001Z,0
2017-08-27T00:04:15.982Z,0
2017-08-27T00:05:15.977Z,0
2017-08-27T00:06:16.013Z,0
2017-08-27T00:07:16.316Z,0
2017-08-27T00:08:15.639Z,0
2017-08-27T00:09:16.291Z,0
2017-08-27T00:10:15.961Z,0
2017-08-27T00:11:15.651Z,0
2017-08-27T00:12:15.984Z,0
2017-08-27T00:13:15.625Z,0
2017-08-27T00:14:15.623Z,0
2017-08-27T00:15:15.965Z,0
2017-08-27T00:16:15.645Z,0
2017-08-27T00:17:16.279Z,0
2017-08-27T00:18:15.941Z,0
2017-08-27T00:19:15.605Z,0
2017-08-27T00:20:15.614Z,0
2017-08-27T00:21:15.934Z,0
2017-08-27T00:22:16.256Z,0
2017-08-27T00:23:16.253Z,0
2017-08-27T00:24:15.917Z,0
2017-08-27T00:25:15.938Z,0
2017-08-27T00:26:15.590Z,0
2017-08-27T00:27:15.604Z,0
2017-08-27T00:28:15.960Z,0
2017-08-27T00:29:16.273Z,0
2017-08-27T00:30:16.238Z,0
2017-08-27T00:31:15.595Z,0
2017-08-27T00:32:15.582Z,0
2017-08-27T00:33:15.893Z,0
2017-08-27T00:34:15.559Z,0
2017-08-27T00:35:16.212Z,0
2017-08-27T00:36:15.884Z,0
2017-08-27T00:37:15.891Z,0
2017-08-27T00:38:15.901Z,0
2017-08-27T00:39:15.870Z,0
2017-08-27T00:40:15.875Z,0
2017-08-27T00:41:16.191Z,0
2017-08-27T00:42:15.860Z,0
2017-08-27T00:43:15.861Z,0
2017-08-27T00:44:15.527Z,0
2017-08-27T00:45:15.524Z,0
2017-08-27T00:46:16.182Z,0
2017-08-27T00:47:15.846Z,0
2017-08-27T00:48:16.171Z,0
2017-08-27T00:49:15.512Z,0
2017-08-27T00:50:15.508Z,0
2017-08-27T00:51:16.198Z,0
2017-08-27T00:52:15.832Z,0
2017-08-27T00:53:15.824Z,0
2017-08-27T00:54:15.844Z,0
2017-08-27T00:55:15.822Z,0
2017-08-27T00:56:15.489Z,0
2017-08-27T00:57:15.823Z,0
2017-08-27T00:58:15.483Z,0
2017-08-27T00:59:16.136Z,0
2017-08-27T01:00:16.137Z,0
2017-08-27T01:01:15.471Z,0
2017-08-27T01:02:16.144Z,0
2017-08-27T01:03:15.467Z,0
2017-08-27T01:04:16.319Z,0
2017-08-27T01:05:15.780Z,0
2017-08-27T01:06:15.799Z,0
2017-08-27T01:07:16.432Z,0
2017-08-27T01:08:15.454Z,0
2017-08-27T01:09:15.768Z,0
2017-08-27T01:10:15.777Z,0
2017-08-27T01:11:15.757Z,0
2017-08-27T01:12:15.435Z,0
2017-08-27T01:13:15.753Z,0
2017-08-27T01:14:15.750Z,0
2017-08-27T01:15:15.747Z,0
2017-08-27T01:16:15.442Z,0
2017-08-27T01:17:15.409Z,0
2017-08-27T01:18:16.081Z,0
2017-08-27T01:19:15.422Z,0
2017-08-27T01:20:15.745Z,0
2017-08-27T01:21:15.726Z,0
2017-08-27T01:22:16.098Z,0
2017-08-27T01:23:16.039Z,0
2017-08-27T01:24:15.392Z,0
2017-08-27T01:25:15.381Z,0
2017-08-27T01:26:15.376Z,0
2017-08-27T01:27:16.040Z,0
2017-08-27T01:28:15.702Z,0
2017-08-27T01:29:15.391Z,0
2017-08-27T01:30:16.032Z,0
2017-08-27T01:31:16.031Z,0
2017-08-27T01:32:16.029Z,0
2017-08-27T01:33:15.369Z,0
2017-08-27T01:34:15.692Z,0
2017-08-27T01:35:15.358Z,0
2017-08-27T01:36:16.354Z,0
2017-08-27T01:37:16.003Z,0
2017-08-27T01:38:15.666Z,0
2017-08-27T01:39:15.687Z,0
2017-08-27T01:40:15.681Z,0
2017-08-27T01:41:15.328Z,0
2017-08-27T01:42:15.983Z,0
2017-08-27T01:43:15.681Z,0
2017-08-27T01:44:15.643Z,0
2017-08-27T01:45:16.000Z,0
2017-08-27T01:46:15.308Z,0
2017-08-27T01:47:15.321Z,0
2017-08-27T01:48:15.956Z,0
2017-08-27T01:49:15.626Z,0
2017-08-27T01:50:15.636Z,0
2017-08-27T01:51:15.993Z,0
2017-08-27T01:52:15.629Z,0
2017-08-27T01:53:15.937Z,0
2017-08-27T01:54:15.276Z,0
2017-08-27T01:55:15.272Z,0
2017-08-27T01:56:15.936Z,0
2017-08-27T01:57:15.591Z,0
2017-08-27T01:58:15.264Z,0
2017-08-27T01:59:15.911Z,0
2017-08-27T02:00:15.272Z,0
2017-08-27T02:01:15.577Z,0
2017-08-27T02:02:15.643Z,0
2017-08-27T02:03:15.916Z,0
2017-08-27T02:04:15.244Z,0
2017-08-27T02:05:15.887Z,0
2017-08-27T02:06:15.886Z,0
2017-08-27T02:07:15.550Z,0
2017-08-27T02:08:15.562Z,0
2017-08-27T02:09:15.230Z,0
2017-08-27T02:10:15.570Z,0
2017-08-27T02:11:15.547Z,0
2017-08-27T02:12:15.203Z,0
2017-08-27T02:13:15.858Z,0
2017-08-27T02:14:15.198Z,0
2017-08-27T02:15:15.859Z,0
2017-08-27T02:16:15.866Z,0
2017-08-27T02:17:15.513Z,0
2017-08-27T02:18:15.853Z,0
2017-08-27T02:19:15.844Z,0
2017-08-27T02:20:15.830Z,0
2017-08-27T02:21:15.501Z,0
2017-08-27T02:22:15.508Z,0
2017-08-27T02:23:15.161Z,0
2017-08-27T02:24:15.501Z,0
2017-08-27T02:25:15.497Z,0
2017-08-27T02:26:15.808Z,0
2017-08-27T02:27:15.823Z,0
2017-08-27T02:28:15.169Z,0
2017-08-27T02:29:15.473Z,0
2017-08-27T02:30:16.139Z,0
2017-08-27T02:31:15.466Z,0
2017-08-27T02:32:15.471Z,0
2017-08-27T02:33:15.139Z,0
2017-08-27T02:34:15.447Z,0
2017-08-27T02:35:15.477Z,0
2017-08-27T02:36:15.452Z,0
2017-08-27T02:37:15.437Z,0
2017-08-27T02:38:16.135Z,0
2017-08-27T02:39:15.099Z,0
2017-08-27T02:40:15.427Z,0
2017-08-27T02:41:15.424Z,0
2017-08-27T02:42:15.766Z,0
2017-08-27T02:43:15.113Z,0
2017-08-27T02:44:15.419Z,0
2017-08-27T02:45:15.102Z,0
2017-08-27T02:46:15.076Z,0
2017-08-27T02:47:15.748Z,0
2017-08-27T02:48:15.733Z,0
2017-08-27T02:49:15.408Z,0
2017-08-27T02:50:15.403Z,0
2017-08-27T02:51:15.723Z,0
2017-08-27T02:52:15.066Z,0
2017-08-27T02:53:15.064Z,0
2017-08-27T02:54:15.395Z,0
2017-08-27T02:55:15.393Z,0
2017-08-27T02:56:15.040Z,0
2017-08-27T02:57:15.689Z,0
2017-08-27T02:58:15.692Z,0
2017-08-27T02:59:15.361Z,0
2017-08-27T03:00:15.356Z,0
2017-08-27T03:01:15.376Z,0
2017-08-27T03:02:15.350Z,0
2017-08-27T03:03:15.362Z,0
2017-08-27T03:04:15.340Z,0
2017-08-27T03:05:15.349Z,0
2017-08-27T03:06:15.682Z,0
2017-08-27T03:07:15.676Z,0
2017-08-27T03:08:15.015Z,0
2017-08-27T03:09:14.997Z,0
2017-08-27T03:10:15.668Z,0
2017-08-27T03:11:15.318Z,0
2017-08-27T03:12:15.979Z,0
2017-08-27T03:13:15.656Z,0
2017-08-27T03:14:14.985Z,0
2017-08-27T03:15:15.317Z,0
2017-08-27T03:16:15.305Z,0
2017-08-27T03:17:14.972Z,0
2017-08-27T03:18:14.990Z,0
2017-08-27T03:19:14.967Z,0
2017-08-27T03:20:14.977Z,0
2017-08-27T03:21:14.961Z,0
2017-08-27T03:22:15.665Z,0
2017-08-27T03:23:15.283Z,0
2017-08-27T03:24:15.280Z,0
2017-08-27T03:25:14.949Z,0
2017-08-27T03:26:14.953Z,0
2017-08-27T03:27:15.015Z,0
2017-08-27T03:28:14.943Z,0
2017-08-27T03:29:15.588Z,0
2017-08-27T03:30:14.948Z,0
2017-08-27T03:31:15.949Z,0
2017-08-27T03:32:15.284Z,0
2017-08-27T03:33:14.942Z,0
2017-08-27T03:34:15.602Z,0
2017-08-27T03:35:15.247Z,0
2017-08-27T03:36:15.611Z,0
2017-08-27T03:37:15.239Z,0
2017-08-27T03:38:14.934Z,0
2017-08-27T03:39:15.233Z,0
2017-08-27T03:40:15.572Z,0
2017-08-27T03:41:15.555Z,0
2017-08-27T03:42:15.237Z,0
2017-08-27T03:43:15.243Z,0
2017-08-27T03:44:15.235Z,0
2017-08-27T03:45:15.898Z,0
2017-08-27T03:46:15.248Z,0
2017-08-27T03:47:15.211Z,0
2017-08-27T03:48:14.881Z,0
2017-08-27T03:49:15.218Z,0
2017-08-27T03:50:14.877Z,0
2017-08-27T03:51:14.874Z,0
2017-08-27T03:52:15.224Z,0
2017-08-27T03:53:14.884Z,0
2017-08-27T03:54:15.539Z,0
2017-08-27T03:55:14.876Z,0
2017-08-27T03:56:15.202Z,0
2017-08-27T03:57:15.196Z,4
2017-08-27T03:58:15.183Z,4
2017-08-27T03:59:15.511Z,4
2017-08-27T04:00:15.534Z,0
2017-08-27T04:01:15.509Z,4
2017-08-27T04:02:15.171Z,4
2017-08-27T04:03:15.834Z,4
2017-08-27T04:04:15.168Z,8
2017-08-27T04:05:15.820Z,8
2017-08-27T04:06:15.266Z,12
2017-08-27T04:07:15.510Z,8
2017-08-27T04:08:15.158Z,12
2017-08-27T04:09:15.483Z,12
2017-08-27T04:10:14.833Z,16
2017-08-27T04:11:15.157Z,12
2017-08-27T04:12:14.822Z,16
2017-08-27T04:13:14.838Z,20
2017-08-27T04:14:15.488Z,20
2017-08-27T04:15:14.809Z,16
2017-08-27T04:16:14.848Z,24
2017-08-27T04:17:15.135Z,36
2017-08-27T04:18:15.132Z,44
2017-08-27T04:19:14.832Z,48
2017-08-27T04:20:14.801Z,40
2017-08-27T04:21:14.826Z,40
2017-08-27T04:22:15.461Z,44
2017-08-27T04:23:15.119Z,52
2017-08-27T04:24:14.791Z,72
2017-08-27T04:25:15.336Z,104
2017-08-27T04:26:15.770Z,160
2017-08-27T04:27:15.438Z,208
2017-08-27T04:28:14.779Z,228
2017-08-27T04:29:15.103Z,208
2017-08-27T04:30:15.102Z,200
2017-08-27T04:31:15.460Z,220
2017-08-27T04:32:15.097Z,200
2017-08-27T04:33:15.096Z,192
2017-08-27T04:34:15.419Z,216
2017-08-27T04:35:15.088Z,240
2017-08-27T04:36:14.843Z,264
2017-08-27T04:37:15.413Z,304
2017-08-27T04:38:15.109Z,320
2017-08-27T04:39:14.753Z,324
2017-08-27T04:40:14.752Z,328
2017-08-27T04:41:15.080Z,312
2017-08-27T04:42:14.744Z,296
2017-08-27T04:43:15.729Z,312
2017-08-27T04:44:15.110Z,348
